Time;durP1;ratioP1;P1;durP2;ratioP2;P2;SDS_P1;SDS_P2;PMS_P1;PMS_P2;Temp;Humidity;BMP_temperature;BMP_pressure;BME280_temperature;BME280_humidity;BME280_pressure;Samples;Min_cycle;Max_cycle;Signal;HPM_P1;HPM_P2
2022/04/14 00:01:52;;;;;;;9.60;6.80;;;9.80;26.00;;;;;;4974608;28;20553;-53
2022/04/14 00:04:19;;;;;;;8.60;7.70;;;9.80;23.00;;;;;;4975139;28;20449;-54
2022/04/14 00:06:46;;;;;;;8.80;7.27;;;9.70;21.30;;;;;;4974878;28;20516;-53
2022/04/14 00:09:12;;;;;;;13.80;6.80;;;9.70;21.70;;;;;;4985904;28;20515;-53
2022/04/14 00:11:39;;;;;;;10.90;7.40;;;9.70;74.00;;;;;;4994133;28;20481;-53
2022/04/14 00:14:08;;;;;;;10.00;7.57;;;9.70;20.40;;;;;;4994168;28;20460;-53
2022/04/14 00:16:35;;;;;;;10.33;7.60;;;9.70;22.00;;;;;;4970416;28;20496;-53
2022/04/14 00:19:02;;;;;;;8.37;7.00;;;9.60;91.80;;;;;;4974349;28;20539;-54
2022/04/14 00:21:28;;;;;;;7.57;6.87;;;9.60;81.70;;;;;;4974680;28;20505;-55
2022/04/14 00:23:55;;;;;;;8.40;7.60;;;9.50;99.90;;;;;;4974439;28;20456;-55
2022/04/14 00:26:22;;;;;;;8.60;6.80;;;9.50;99.90;;;;;;4975034;28;20484;-53
2022/04/14 00:28:48;;;;;;;10.70;6.83;;;9.40;99.90;;;;;;4993494;28;20477;-55
2022/04/14 00:31:16;;;;;;;9.17;7.70;;;9.40;99.90;;;;;;4991898;28;20484;-54
2022/04/14 00:33:42;;;;;;;9.20;8.40;;;9.40;99.90;;;;;;4973916;28;20516;-53
2022/04/14 00:36:09;;;;;;;12.90;7.57;;;9.40;99.90;;;;;;4974276;28;20449;-53
2022/04/14 00:38:36;;;;;;;10.50;8.30;;;9.40;99.90;;;;;;4993140;28;20481;-54
2022/04/14 00:41:02;;;;;;;9.90;7.83;;;9.30;99.90;;;;;;4993469;28;20877;-53
2022/04/14 00:43:30;;;;;;;16.33;7.77;;;9.30;99.90;;;;;;4993448;28;20519;-53
2022/04/14 00:45:59;;;;;;;8.37;7.50;;;9.20;99.90;;;;;;4993582;28;20480;-55
2022/04/14 00:48:27;;;;;;;8.33;6.90;;;9.20;99.90;;;;;;4968124;28;20470;-54
2022/04/14 00:50:54;;;;;;;8.10;7.13;;;9.20;99.90;;;;;;4954689;28;20486;-54
2022/04/14 00:53:22;;;;;;;10.30;8.20;;;9.20;99.90;;;;;;4954687;28;20482;-54
2022/04/14 00:55:49;;;;;;;9.03;7.53;;;9.20;99.90;;;;;;4954542;28;20450;-54
2022/04/14 00:58:15;;;;;;;9.37;8.47;;;9.20;99.90;;;;;;4987025;28;21009;-55
2022/04/14 01:00:42;;;;;;;19.53;8.63;;;9.10;99.90;;;;;;4993330;28;20878;-53
2022/04/14 01:03:10;;;;;;;8.87;7.40;;;9.10;99.90;;;;;;4993106;28;21008;-53
2022/04/14 01:05:38;;;;;;;10.33;8.90;;;9.10;99.90;;;;;;4969437;28;20450;-53
2022/04/14 01:08:06;;;;;;;16.60;8.33;;;9.00;99.90;;;;;;4983518;28;20472;-54
2022/04/14 01:10:34;;;;;;;12.50;7.70;;;9.00;99.90;;;;;;4992859;28;20491;-53
2022/04/14 01:13:00;;;;;;;10.90;8.47;;;9.00;99.90;;;;;;4978710;28;20465;-53
2022/04/14 01:15:27;;;;;;;13.10;8.60;;;9.00;99.90;;;;;;4954189;28;20937;-54
2022/04/14 01:17:54;;;;;;;11.47;8.13;;;9.00;99.90;;;;;;4983713;28;20566;-54
2022/04/14 01:20:20;;;;;;;12.43;9.00;;;9.00;99.90;;;;;;4992907;28;20502;-54
2022/04/14 01:22:55;;;;;;;12.30;7.50;;;8.90;99.90;;;;;;4992846;28;20453;-53
2022/04/14 01:25:23;;;;;;;8.93;7.80;;;8.90;99.90;;;;;;4981391;28;20488;-54
2022/04/14 01:27:50;;;;;;;13.80;8.50;;;8.90;99.90;;;;;;4978814;28;20504;-55
2022/04/14 01:30:17;;;;;;;10.60;7.87;;;8.90;99.90;;;;;;4992734;28;20500;-54
2022/04/14 01:32:44;;;;;;;12.60;7.90;;;8.80;99.90;;;;;;4992826;28;20483;-53
2022/04/14 01:35:10;;;;;;;20.40;7.37;;;8.80;99.90;;;;;;4992650;28;20453;-53
2022/04/14 01:37:37;;;;;;;11.33;8.47;;;8.80;99.90;;;;;;4990058;28;20500;-53
2022/04/14 01:40:05;;;;;;;10.70;8.00;;;8.80;99.90;;;;;;4979921;28;20516;-54
2022/04/14 01:42:33;;;;;;;8.73;7.83;;;8.70;99.90;;;;;;4973100;28;20449;-54
2022/04/14 01:44:59;;;;;;;9.70;7.60;;;8.70;99.90;;;;;;4974026;28;20496;-54
2022/04/14 01:47:26;;;;;;;10.10;8.00;;;8.70;99.90;;;;;;4983099;28;20998;-53
2022/04/14 01:49:52;;;;;;;9.20;7.90;;;8.70;99.90;;;;;;4983300;28;20453;-53
2022/04/14 01:52:19;;;;;;;11.07;8.33;;;8.70;99.90;;;;;;4973006;28;20442;-55
2022/04/14 01:54:45;;;;;;;10.40;8.50;;;8.70;99.90;;;;;;4988052;28;20452;-55
2022/04/14 01:57:12;;;;;;;9.90;8.90;;;8.60;99.90;;;;;;4966084;28;20502;-53
2022/04/14 01:59:40;;;;;;;10.53;8.30;;;8.60;99.90;;;;;;4953499;28;20546;-54
2022/04/14 02:02:06;;;;;;;11.00;9.27;;;8.60;99.90;;;;;;4954050;28;20474;-53
2022/04/14 02:04:33;;;;;;;17.43;7.90;;;8.60;99.90;;;;;;4979205;28;20489;-53
2022/04/14 02:06:59;;;;;;;11.70;9.13;;;8.60;99.90;;;;;;4991992;28;20515;-55
2022/04/14 02:09:26;;;;;;;9.70;8.77;;;8.50;99.90;;;;;;4991869;28;20563;-53
2022/04/14 02:11:53;;;;;;;12.47;9.50;;;8.40;99.90;;;;;;4956258;28;20564;-54
2022/04/14 02:14:19;;;;;;;20.03;10.63;;;8.40;99.90;;;;;;4963779;28;20485;-54
2022/04/14 02:19:22;;;;;;;14.73;11.97;;;8.60;99.90;;;;;;5007697;28;20991;-48
2022/04/14 02:21:49;;;;;;;21.77;11.80;;;8.70;99.90;;;;;;5012035;28;20530;-47
2022/04/14 02:24:16;;;;;;;13.70;10.60;;;8.70;99.90;;;;;;5002936;28;20705;-48
2022/04/14 02:26:42;;;;;;;13.93;11.50;;;8.80;99.90;;;;;;4996017;28;20848;-47
2022/04/14 02:29:09;;;;;;;14.00;10.87;;;8.90;99.90;;;;;;4995758;28;20551;-48
2022/04/14 02:31:35;;;;;;;13.57;10.60;;;9.00;99.90;;;;;;4995941;28;20571;-48
2022/04/14 02:34:02;;;;;;;19.00;11.10;;;9.00;99.90;;;;;;4995750;28;20884;-47
2022/04/14 02:36:29;;;;;;;12.57;11.00;;;9.00;99.90;;;;;;4995888;28;20476;-48
2022/04/14 02:38:56;;;;;;;12.87;11.57;;;9.10;99.90;;;;;;5005226;28;20483;-48
2022/04/14 02:41:23;;;;;;;18.60;12.20;;;9.10;99.90;;;;;;5015266;28;20483;-48
2022/04/14 02:43:50;;;;;;;13.97;10.80;;;9.00;99.90;;;;;;5015222;28;20447;-49
2022/04/14 02:46:16;;;;;;;16.40;11.40;;;9.10;99.90;;;;;;5015256;28;20542;-47
2022/04/14 02:48:43;;;;;;;14.67;11.03;;;9.20;99.90;;;;;;5014950;28;20554;-49
2022/04/14 02:51:09;;;;;;;13.93;11.20;;;9.20;99.90;;;;;;5015178;28;20570;-48
2022/04/14 02:53:37;;;;;;;15.97;11.30;;;9.40;99.90;;;;;;5014909;28;20542;-48
2022/04/14 02:56:05;;;;;;;15.13;12.13;;;9.60;99.90;;;;;;4998964;28;20543;-49
2022/04/14 02:58:32;;;;;;;16.37;11.73;;;9.70;99.90;;;;;;4995019;28;20888;-48
2022/04/14 03:00:58;;;;;;;12.17;10.63;;;9.70;99.90;;;;;;4995275;28;20995;-48
2022/04/14 03:03:26;;;;;;;15.70;10.83;;;9.70;99.90;;;;;;4995476;28;20889;-48
2022/04/14 03:05:53;;;;;;;12.73;11.40;;;9.80;99.90;;;;;;4995808;28;20480;-48
2022/04/14 03:08:20;;;;;;;15.20;12.33;;;9.80;99.90;;;;;;5014327;28;20915;-49
2022/04/14 03:10:48;;;;;;;15.63;11.90;;;9.80;99.90;;;;;;5014981;28;20666;-48
2022/04/14 03:13:14;;;;;;;17.27;11.20;;;9.90;99.90;;;;;;5014908;28;20475;-49
2022/04/14 03:15:42;;;;;;;13.53;11.60;;;9.90;99.90;;;;;;5002241;28;20970;-48
2022/04/14 03:18:08;;;;;;;22.27;11.90;;;9.80;99.90;;;;;;4994658;28;20530;-48
2022/04/14 03:20:35;;;;;;;13.93;11.27;;;9.80;99.90;;;;;;5000663;28;20490;-49
2022/04/14 03:23:01;;;;;;;16.83;11.10;;;10.00;99.90;;;;;;5014484;28;20475;-48
2022/04/14 03:25:28;;;;;;;13.80;11.27;;;10.00;99.90;;;;;;5014584;28;20459;-47
2022/04/14 03:27:56;;;;;;;14.50;10.60;;;10.00;99.90;;;;;;5014098;28;20878;-48
2022/04/14 03:30:22;;;;;;;17.00;11.87;;;10.00;99.90;;;;;;5014123;28;20534;-49
2022/04/14 03:32:49;;;;;;;18.10;11.10;;;10.10;99.90;;;;;;5014401;28;20454;-47
2022/04/14 03:35:17;;;;;;;12.90;10.93;;;10.10;99.90;;;;;;5013931;28;20448;-48
2022/04/14 03:37:43;;;;;;;13.70;10.37;;;10.00;99.90;;;;;;5013932;28;20522;-47
2022/04/14 03:40:11;;;;;;;11.90;10.57;;;10.00;99.90;;;;;;5014382;28;20505;-48
2022/04/14 03:42:38;;;;;;;12.30;10.50;;;10.10;99.90;;;;;;5014292;28;20486;-49
2022/04/14 03:45:07;;;;;;;14.27;11.10;;;10.10;99.90;;;;;;5014003;28;20538;-48
2022/04/14 03:47:34;;;;;;;13.27;11.20;;;10.10;99.90;;;;;;5014975;28;20947;-48
2022/04/14 03:50:00;;;;;;;11.93;10.43;;;10.10;99.90;;;;;;5014045;28;20889;-47
2022/04/14 03:52:27;;;;;;;15.90;12.70;;;10.20;99.90;;;;;;5014102;28;20570;-49
2022/04/14 03:54:54;;;;;;;12.77;11.20;;;10.20;99.90;;;;;;5008601;28;20484;-49
2022/04/14 03:57:20;;;;;;;13.67;11.17;;;10.20;99.90;;;;;;4994496;28;20612;-49
2022/04/14 03:59:47;;;;;;;15.83;11.47;;;10.20;99.90;;;;;;5006986;28;20876;-49
2022/04/14 04:02:15;;;;;;;15.50;10.90;;;10.20;99.90;;;;;;5013812;28;20451;-49
2022/04/14 04:04:41;;;;;;;12.90;11.20;;;10.20;99.90;;;;;;5013798;28;20498;-48
2022/04/14 04:07:08;;;;;;;13.47;11.07;;;10.20;99.90;;;;;;5013918;28;20496;-47
2022/04/14 04:09:35;;;;;;;16.57;11.40;;;10.10;99.90;;;;;;5013625;28;20927;-47
2022/04/14 04:12:02;;;;;;;14.87;11.37;;;10.10;99.90;;;;;;5013728;28;20538;-49
2022/04/14 04:14:28;;;;;;;15.87;10.70;;;10.10;99.90;;;;;;5013327;28;20452;-48
2022/04/14 04:16:55;;;;;;;15.57;11.53;;;10.20;99.90;;;;;;5013496;28;20479;-49
2022/04/14 04:19:23;;;;;;;13.50;10.47;;;10.10;99.90;;;;;;5013220;28;20538;-49
2022/04/14 04:21:49;;;;;;;15.47;11.77;;;10.10;99.90;;;;;;5013014;28;20532;-47
2022/04/14 04:24:16;;;;;;;19.30;11.07;;;10.00;99.90;;;;;;5013302;28;20956;-51
2022/04/14 04:26:42;;;;;;;13.63;10.40;;;10.00;99.90;;;;;;5013571;28;20444;-48
2022/04/14 04:29:09;;;;;;;12.23;10.00;;;10.00;99.90;;;;;;5013005;28;20467;-48
2022/04/14 04:31:35;;;;;;;12.67;10.23;;;10.00;99.90;;;;;;5013142;28;20503;-50
2022/04/14 04:34:02;;;;;;;12.07;9.80;;;10.00;99.90;;;;;;5013541;28;20443;-49
2022/04/14 04:36:30;;;;;;;18.00;10.30;;;10.00;99.90;;;;;;5013262;28;20512;-48
2022/04/14 04:38:58;;;;;;;14.60;10.60;;;10.00;99.90;;;;;;5012972;28;20506;-48
2022/04/14 04:41:25;;;;;;;14.35;9.70;;;10.10;99.90;;;;;;5011887;28;20446;-47
2022/04/14 04:43:51;;;;;;;14.83;10.87;;;10.10;99.90;;;;;;5013175;28;20291;-48
2022/04/14 04:46:18;;;;;;;17.37;10.03;;;10.20;99.90;;;;;;5013181;28;20509;-48
2022/04/14 04:48:44;;;;;;;14.87;10.57;;;10.20;99.90;;;;;;5003318;28;20547;-47
2022/04/14 04:51:11;;;;;;;11.80;9.63;;;10.30;99.90;;;;;;5012089;28;20557;-48
2022/04/14 04:53:38;;;;;;;14.57;10.03;;;10.40;99.90;;;;;;5013000;28;20530;-48
2022/04/14 04:56:05;;;;;;;10.27;9.03;;;10.40;99.90;;;;;;5012880;28;20538;-49
2022/04/14 04:58:32;;;;;;;12.20;9.40;;;10.50;99.90;;;;;;5012486;28;21009;-47
2022/04/14 05:00:58;;;;;;;11.70;9.17;;;10.50;99.90;;;;;;5012893;28;20535;-48
2022/04/14 05:03:25;;;;;;;11.33;9.83;;;10.60;99.90;;;;;;5012748;28;20494;-47
2022/04/14 05:05:52;;;;;;;20.90;10.17;;;10.60;99.90;;;;;;5012847;28;20539;-47
2022/04/14 05:08:18;;;;;;;11.40;10.13;;;10.70;99.90;;;;;;5012629;28;20514;-48
2022/04/14 05:10:46;;;;;;;12.47;9.20;;;10.70;99.90;;;;;;5012823;28;20483;-47
2022/04/14 05:13:14;;;;;;;11.07;8.57;;;10.70;99.90;;;;;;5012451;28;20578;-48
2022/04/14 05:15:41;;;;;;;18.23;10.13;;;10.70;99.90;;;;;;5012958;28;20455;-48
2022/04/14 05:18:07;;;;;;;19.07;10.77;;;10.80;99.90;;;;;;5003008;28;20566;-49
2022/04/14 05:20:35;;;;;;;17.47;10.10;;;10.80;99.90;;;;;;5012723;28;20501;-49
2022/04/14 05:23:01;;;;;;;14.90;9.20;;;10.80;99.90;;;;;;5012633;28;20443;-48
2022/04/14 05:25:28;;;;;;;11.80;9.30;;;10.80;99.90;;;;;;5012502;28;20981;-48
2022/04/14 05:27:56;;;;;;;13.23;9.53;;;10.80;99.90;;;;;;5011826;28;21080;-46
2022/04/14 05:30:22;;;;;;;21.23;10.60;;;10.80;99.90;;;;;;5013068;28;20530;-48
2022/04/14 05:32:49;;;;;;;14.23;9.63;;;10.90;99.90;;;;;;5012966;28;20570;-48
2022/04/14 05:35:15;;;;;;;12.70;10.10;;;10.90;99.90;;;;;;5018594;28;20448;-48
2022/04/14 05:37:42;;;;;;;10.87;9.00;;;10.90;99.90;;;;;;5006208;28;20511;-48
2022/04/14 05:40:09;;;;;;;12.53;9.87;;;11.00;99.90;;;;;;5001044;28;20480;-48
2022/04/14 05:42:36;;;;;;;11.33;9.17;;;11.00;99.90;;;;;;5015371;28;20482;-48
2022/04/14 05:45:04;;;;;;;15.03;9.40;;;11.10;99.90;;;;;;5014979;28;20478;-48
2022/04/14 05:47:31;;;;;;;14.13;10.43;;;11.10;99.90;;;;;;5012428;28;20507;-47
2022/04/14 05:49:57;;;;;;;12.90;9.43;;;11.10;99.90;;;;;;5012223;28;21163;-46
2022/04/14 05:52:24;;;;;;;12.47;8.80;;;11.20;99.90;;;;;;5015330;28;20570;-48
2022/04/14 05:54:50;;;;;;;14.93;10.23;;;11.20;99.90;;;;;;5018292;28;20471;-48
2022/04/14 05:57:17;;;;;;;12.23;9.27;;;11.30;99.90;;;;;;5018664;28;20554;-48
2022/04/14 05:59:44;;;;;;;26.60;9.77;;;11.30;99.90;;;;;;5018517;28;20475;-48
2022/04/14 06:02:12;;;;;;;17.80;10.47;;;11.30;99.90;;;;;;5018726;28;20540;-48
2022/04/14 06:04:38;;;;;;;17.43;10.10;;;11.40;99.90;;;;;;5018632;28;20458;-48
2022/04/14 06:07:05;;;;;;;11.30;10.10;;;11.30;99.90;;;;;;5009820;28;20472;-49
2022/04/14 06:09:32;;;;;;;13.70;10.50;;;11.40;99.90;;;;;;5003972;28;20482;-48
2022/04/14 06:11:59;;;;;;;14.83;10.60;;;11.50;99.90;;;;;;5018491;28;20572;-48
2022/04/14 06:14:26;;;;;;;17.00;10.00;;;11.60;99.90;;;;;;5018580;28;20459;-48
2022/04/14 06:16:53;;;;;;;11.47;10.27;;;11.70;99.90;;;;;;5018280;28;20447;-49
2022/04/14 06:19:21;;;;;;;16.13;10.10;;;11.70;99.90;;;;;;5015010;28;20484;-47
2022/04/14 06:21:47;;;;;;;10.87;9.63;;;11.80;99.90;;;;;;5001639;28;20535;-48
2022/04/14 06:24:14;;;;;;;14.27;10.30;;;11.80;99.90;;;;;;5018203;28;20535;-49
2022/04/14 06:26:41;;;;;;;20.20;11.00;;;12.00;99.90;;;;;;5013045;28;20484;-49
2022/04/14 06:29:07;;;;;;;11.20;10.10;;;12.00;99.90;;;;;;4998517;28;20557;-48
2022/04/14 06:31:35;;;;;;;11.20;9.90;;;12.10;99.90;;;;;;4998749;28;20914;-48
2022/04/14 06:34:02;;;;;;;13.20;10.93;;;12.20;99.90;;;;;;4998656;28;20547;-48
2022/04/14 06:36:29;;;;;;;12.80;9.90;;;12.30;99.90;;;;;;5005881;28;20487;-48
2022/04/14 06:38:56;;;;;;;13.43;9.77;;;12.50;99.90;;;;;;5017844;28;20570;-48
2022/04/14 06:41:22;;;;;;;14.43;10.30;;;12.60;99.90;;;;;;5018354;28;20534;-48
2022/04/14 06:43:49;;;;;;;19.50;11.20;;;12.70;99.90;;;;;;5018234;28;20475;-48
2022/04/14 06:46:16;;;;;;;14.77;10.70;;;12.90;99.90;;;;;;5018212;28;20455;-48
2022/04/14 06:48:43;;;;;;;15.03;9.83;;;12.90;99.90;;;;;;5017763;28;20887;-48
2022/04/14 06:51:09;;;;;;;15.80;10.77;;;13.10;99.90;;;;;;5017756;28;20454;-48
2022/04/14 06:53:37;;;;;;;16.23;11.30;;;13.10;99.90;;;;;;5017707;28;20574;-48
2022/04/14 06:56:04;;;;;;;15.07;11.97;;;13.20;99.90;;;;;;5017909;28;20494;-48
2022/04/14 06:58:31;;;;;;;20.27;13.00;;;13.20;99.90;;;;;;5017702;28;20502;-49
2022/04/14 07:00:57;;;;;;;17.33;11.27;;;13.30;99.90;;;;;;5018022;28;20940;-49
2022/04/14 07:03:26;;;;;;;14.20;11.67;;;13.50;99.90;;;;;;5016171;28;20483;-49
2022/04/14 07:05:54;;;;;;;14.00;11.23;;;13.50;99.90;;;;;;5014202;28;20458;-47
2022/04/14 07:08:21;;;;;;;17.20;11.40;;;13.70;99.90;;;;;;5014601;28;20477;-47
2022/04/14 07:10:49;;;;;;;17.77;10.30;;;13.70;74.00;;;;;;5014815;28;20451;-48
2022/04/14 07:13:16;;;;;;;12.20;9.57;;;13.90;21.60;;;;;;5014706;28;20930;-47
2022/04/14 07:15:42;;;;;;;13.83;10.10;;;13.90;26.20;;;;;;5014142;28;20483;-47
2022/04/14 07:18:09;;;;;;;13.67;10.37;;;14.00;20.60;;;;;;5014035;28;20575;-48
2022/04/14 07:20:35;;;;;;;14.43;10.27;;;14.00;23.30;;;;;;5014283;28;20472;-48
2022/04/14 07:23:02;;;;;;;10.90;9.77;;;13.90;78.80;;;;;;5014540;28;21307;-48
2022/04/14 07:25:31;;;;;;;11.80;9.80;;;14.00;20.70;;;;;;5014599;28;20502;-48
2022/04/14 07:27:59;;;;;;;19.83;9.30;;;14.10;21.90;;;;;;5014122;28;20873;-49
2022/04/14 07:30:26;;;;;;;11.80;10.07;;;14.20;23.50;;;;;;5012821;28;20539;-47
2022/04/14 07:32:54;;;;;;;12.40;8.80;;;14.40;27.50;;;;;;5000737;28;20476;-48
2022/04/14 07:35:22;;;;;;;11.70;8.27;;;14.40;36.20;;;;;;4994903;28;21168;-48
2022/04/14 07:37:49;;;;;;;8.83;8.00;;;14.60;32.90;;;;;;4994482;28;20476;-48
2022/04/14 07:40:15;;;;;;;11.17;7.70;;;14.80;40.90;;;;;;4994781;28;20514;-48
2022/04/14 07:42:44;;;;;;;12.77;8.10;;;15.00;47.00;;;;;;4994629;28;20445;-48
2022/04/14 07:45:13;;;;;;;10.67;7.40;;;15.20;47.80;;;;;;4994563;28;20532;-48
2022/04/14 07:47:41;;;;;;;9.50;8.53;;;15.40;53.60;;;;;;4995518;28;20559;-46
2022/04/14 07:50:08;;;;;;;12.77;8.10;;;15.60;64.30;;;;;;5002694;28;20827;-48
2022/04/14 07:52:47;;;;;;;9.90;7.70;;;15.60;64.70;;;;;;4994554;28;20951;-48
2022/04/14 07:55:18;;;;;;;11.17;8.20;;;15.50;64.00;;;;;;4994383;28;21007;-48
2022/04/14 07:57:45;;;;;;;9.33;6.33;;;15.40;61.80;;;;;;4994111;28;20508;-48
2022/04/14 08:00:14;;;;;;;7.90;7.10;;;15.60;60.40;;;;;;4996434;28;20535;-48
2022/04/14 08:02:47;;;;;;;10.10;7.20;;;15.70;64.50;;;;;;5013958;28;20530;-48
2022/04/14 08:05:13;;;;;;;12.50;6.73;;;16.10;67.30;;;;;;5013672;28;21003;-48
2022/04/14 08:07:40;;;;;;;11.90;6.53;;;16.00;69.90;;;;;;5013471;28;20471;-48
2022/04/14 08:10:07;;;;;;;7.97;6.90;;;16.10;72.10;;;;;;5013792;28;20534;-48
2022/04/14 08:12:34;;;;;;;13.93;6.83;;;16.00;76.80;;;;;;5013385;28;20949;-48
2022/04/14 08:15:00;;;;;;;7.13;6.03;;;15.80;71.20;;;;;;5012961;28;20531;-48
2022/04/14 08:17:28;;;;;;;6.30;5.70;;;15.70;67.70;;;;;;5012672;28;21013;-53
2022/04/14 08:19:54;;;;;;;8.37;6.70;;;15.70;63.10;;;;;;5004373;28;20538;-53
2022/04/14 08:22:21;;;;;;;8.07;6.20;;;15.80;65.30;;;;;;5013740;28;20826;-53
2022/04/14 08:24:50;;;;;;;7.77;5.40;;;15.70;64.50;;;;;;5013671;28;20988;-53
2022/04/14 08:27:18;;;;;;;8.60;7.20;;;15.60;66.50;;;;;;5013585;28;20486;-54
2022/04/14 08:29:44;;;;;;;7.57;6.67;;;15.60;60.20;;;;;;5013332;28;20452;-54
2022/04/14 08:32:11;;;;;;;9.83;7.27;;;15.50;61.50;;;;;;5014159;28;20483;-54
2022/04/14 08:34:40;;;;;;;6.37;5.60;;;15.40;58.30;;;;;;5013412;28;20482;-53
2022/04/14 08:37:06;;;;;;;9.50;6.77;;;15.40;58.70;;;;;;5013285;28;20606;-54
2022/04/14 08:39:33;;;;;;;10.30;6.80;;;15.30;59.10;;;;;;5012576;28;20539;-53
2022/04/14 08:42:09;;;;;;;6.63;5.33;;;15.20;50.00;;;;;;5013271;28;20897;-54
2022/04/14 08:44:42;;;;;;;6.50;5.13;;;15.20;49.20;;;;;;5013265;28;20475;-55
2022/04/14 08:47:09;;;;;;;9.73;5.30;;;15.20;46.10;;;;;;5012884;28;20474;-53
2022/04/14 08:49:36;;;;;;;6.47;5.33;;;15.10;42.20;;;;;;5009153;28;20481;-54
2022/04/14 08:52:04;;;;;;;8.20;5.30;;;15.00;40.20;;;;;;4993249;28;20579;-55
2022/04/14 08:54:32;;;;;;;7.40;5.80;;;15.10;37.50;;;;;;4993436;28;20480;-53
2022/04/14 08:56:59;;;;;;;8.13;5.20;;;15.10;43.10;;;;;;5008530;28;20543;-53
2022/04/14 08:59:28;;;;;;;6.30;4.23;;;15.20;40.80;;;;;;5012523;28;20483;-54
2022/04/14 09:01:56;;;;;;;3.90;3.60;;;15.20;37.40;;;;;;5012838;28;20475;-54
2022/04/14 09:04:22;;;;;;;5.67;4.73;;;15.00;36.20;;;;;;5012346;28;20471;-53
2022/04/14 09:06:49;;;;;;;10.43;4.30;;;15.10;33.50;;;;;;5012531;28;20487;-55
2022/04/14 09:09:17;;;;;;;4.00;3.67;;;15.10;31.30;;;;;;5012169;28;20443;-54
2022/04/14 09:11:43;;;;;;;3.97;3.50;;;15.10;32.20;;;;;;4992918;28;20476;-54
2022/04/14 09:14:11;;;;;;;4.00;2.73;;;15.20;32.10;;;;;;5007849;28;21076;-53
2022/04/14 09:16:38;;;;;;;3.10;2.90;;;15.20;26.80;;;;;;5012339;28;20835;-54
2022/04/14 09:19:05;;;;;;;2.90;2.60;;;15.30;30.50;;;;;;5011919;28;20507;-54
2022/04/14 09:21:32;;;;;;;5.33;3.20;;;15.10;28.10;;;;;;5012547;28;20879;-55
2022/04/14 09:23:59;;;;;;;3.50;2.20;;;15.10;72.10;;;;;;5012449;28;20498;-55
2022/04/14 09:26:27;;;;;;;3.47;1.80;;;15.10;95.10;;;;;;5012033;28;20502;-54
2022/04/14 09:29:06;;;;;;;2.10;1.93;;;15.10;96.30;;;;;;5011861;28;20478;-54
2022/04/14 09:31:47;;;;;;;2.40;1.97;;;15.10;99.90;;;;;;5012033;28;20513;-54
2022/04/14 09:34:15;;;;;;;3.40;2.50;;;15.10;99.90;;;;;;5012249;28;20483;-54
2022/04/14 09:36:41;;;;;;;2.30;2.20;;;15.00;99.90;;;;;;5012452;28;20849;-54
2022/04/14 09:39:08;;;;;;;4.47;2.40;;;15.10;99.90;;;;;;5011784;28;20547;-54
2022/04/14 09:41:38;;;;;;;14.13;3.60;;;15.20;99.90;;;;;;4995060;28;20448;-55
2022/04/14 09:44:08;;;;;;;5.23;4.10;;;15.20;99.90;;;;;;4999119;28;20467;-54
2022/04/14 09:46:35;;;;;;;5.83;4.03;;;15.20;99.90;;;;;;5012341;28;20451;-53
2022/04/14 09:49:06;;;;;;;4.73;3.67;;;15.10;99.90;;;;;;5011873;28;20543;-53
2022/04/14 09:51:35;;;;;;;12.70;4.17;;;15.10;99.90;;;;;;5012080;28;20482;-54
2022/04/14 09:54:13;;;;;;;4.37;4.03;;;15.10;99.90;;;;;;5012050;28;20484;-54
2022/04/14 09:56:47;;;;;;;4.37;3.97;;;15.00;99.90;;;;;;5011767;28;20455;-54
2022/04/14 09:59:15;;;;;;;4.17;3.40;;;14.90;99.90;;;;;;5011714;28;20894;-54
2022/04/14 10:01:42;;;;;;;5.37;3.80;;;14.80;99.90;;;;;;5011966;28;20487;-54
2022/04/14 10:04:29;;;;;;;3.30;3.00;;;14.70;99.90;;;;;;5012049;28;20502;-54
2022/04/14 10:07:05;;;;;;;4.67;3.90;;;14.50;99.90;;;;;;5011897;28;20972;-55
2022/04/14 10:09:31;;;;;;;4.30;3.90;;;14.60;99.90;;;;;;5011641;28;20526;-53
2022/04/14 10:11:59;;;;;;;5.07;4.20;;;14.50;99.90;;;;;;5012049;28;20479;-55
2022/04/14 10:14:26;;;;;;;7.67;3.50;;;14.60;99.90;;;;;;5011944;28;20509;-55
2022/04/14 10:16:54;;;;;;;4.30;3.90;;;14.60;99.90;;;;;;5011728;28;20988;-54
2022/04/14 10:19:21;;;;;;;7.43;4.30;;;14.70;99.90;;;;;;5011400;28;20464;-54
2022/04/14 10:21:48;;;;;;;13.00;4.13;;;14.70;99.90;;;;;;5004298;28;20535;-54
2022/04/14 10:24:17;;;;;;;3.80;3.50;;;14.60;99.90;;;;;;4992336;28;20527;-54
2022/04/14 10:26:44;;;;;;;16.93;3.80;;;14.60;99.90;;;;;;5005639;28;20462;-54
2022/04/14 10:29:14;;;;;;;4.00;3.60;;;14.50;99.90;;;;;;5011336;28;20510;-54
2022/04/14 10:31:41;;;;;;;4.07;2.90;;;14.60;99.90;;;;;;5011557;28;20526;-53
2022/04/14 10:34:09;;;;;;;9.20;3.30;;;14.60;99.90;;;;;;5011540;28;21119;-54
2022/04/14 10:36:38;;;;;;;6.23;3.37;;;14.70;99.90;;;;;;5011910;28;20450;-54
2022/04/14 10:39:06;;;;;;;7.70;3.80;;;14.60;99.90;;;;;;5012432;28;20472;-54
2022/04/14 10:41:36;;;;;;;6.33;2.50;;;14.50;99.90;;;;;;5015462;28;20498;-54
2022/04/14 10:44:04;;;;;;;5.90;2.13;;;14.40;99.90;;;;;;5015264;28;20452;-54
2022/04/14 10:46:41;;;;;;;2.50;2.30;;;14.30;99.90;;;;;;5015166;28;20546;-54
2022/04/14 10:49:13;;;;;;;2.17;1.97;;;14.20;99.90;;;;;;5014992;28;20467;-54
2022/04/14 10:51:40;;;;;;;2.73;2.27;;;14.20;99.90;;;;;;5015299;28;20527;-54
2022/04/14 10:54:08;;;;;;;2.30;2.20;;;14.20;99.90;;;;;;5015186;28;20696;-54
2022/04/14 10:56:49;;;;;;;4.60;2.03;;;14.10;99.90;;;;;;5015098;28;20534;-54
2022/04/14 10:59:17;;;;;;;1.70;1.60;;;14.10;99.90;;;;;;5014803;28;21047;-54
2022/04/14 11:01:55;;;;;;;2.87;2.60;;;14.00;99.90;;;;;;5015820;28;20591;-55
2022/04/14 11:04:35;;;;;;;5.20;2.33;;;13.90;99.90;;;;;;5014632;28;20443;-54
2022/04/14 11:07:07;;;;;;;5.60;2.37;;;13.90;99.90;;;;;;5014813;28;20450;-55
2022/04/14 11:09:51;;;;;;;4.40;3.00;;;13.80;99.90;;;;;;5003590;28;20509;-53
2022/04/14 11:12:19;;;;;;;3.47;3.13;;;13.80;99.90;;;;;;5010961;28;20869;-53
2022/04/14 11:14:51;;;;;;;4.20;3.80;;;13.80;99.90;;;;;;5014733;28;20898;-54
2022/04/14 11:17:58;;;;;;;4.00;3.50;;;13.80;99.90;;;;;;5014635;28;20510;-54
2022/04/14 11:20:52;;;;;;;5.17;3.00;;;13.80;99.90;;;;;;5014560;28;20455;-53
2022/04/14 11:23:24;;;;;;;3.10;2.90;;;13.70;99.90;;;;;;5014740;28;20859;-54
2022/04/14 11:25:51;;;;;;;7.73;4.20;;;13.60;99.90;;;;;;5014681;28;20510;-53
2022/04/14 11:28:24;;;;;;;4.57;3.30;;;13.60;99.90;;;;;;5013814;28;20475;-55
2022/04/14 11:30:51;;;;;;;3.13;2.83;;;13.60;99.90;;;;;;5014707;28;20813;-53
2022/04/14 11:33:25;;;;;;;3.80;3.50;;;13.60;99.90;;;;;;5014181;28;20483;-54
2022/04/14 11:35:53;;;;;;;3.27;2.70;;;13.60;99.90;;;;;;5014176;28;20444;-54
2022/04/14 11:38:58;;;;;;;3.63;3.33;;;13.60;99.90;;;;;;5013881;28;21001;-54
2022/04/14 11:41:33;;;;;;;3.40;3.20;;;13.60;99.90;;;;;;5014195;28;20906;-54
2022/04/14 11:44:01;;;;;;;6.93;4.20;;;13.50;99.90;;;;;;5014266;28;20532;-54
2022/04/14 11:46:28;;;;;;;5.33;4.67;;;13.50;99.90;;;;;;5014247;28;20542;-55
2022/04/14 11:48:54;;;;;;;4.50;4.17;;;13.40;99.90;;;;;;5013663;28;20912;-53
2022/04/14 11:51:22;;;;;;;5.63;5.17;;;13.40;99.90;;;;;;5013671;28;20448;-55
2022/04/14 11:53:53;;;;;;;4.80;4.40;;;13.30;99.90;;;;;;5013717;28;20541;-54
2022/04/14 11:56:20;;;;;;;6.43;5.10;;;13.30;97.50;;;;;;5014092;28;20502;-53
2022/04/14 11:58:48;;;;;;;5.63;5.00;;;13.10;92.00;;;;;;5013593;28;20529;-55
2022/04/14 12:01:14;;;;;;;5.27;4.77;;;13.10;69.50;;;;;;5013931;28;20534;-53
2022/04/14 12:03:43;;;;;;;7.70;5.80;;;13.00;45.70;;;;;;5013760;28;20455;-54
2022/04/14 12:06:12;;;;;;;5.90;5.30;;;12.90;31.50;;;;;;5013813;28;20455;-54
2022/04/14 12:08:40;;;;;;;6.50;5.90;;;12.90;23.90;;;;;;5013519;28;20522;-54
2022/04/14 12:11:12;;;;;;;7.13;5.97;;;12.80;99.90;;;;;;5013808;28;20510;-54
2022/04/14 12:13:39;;;;;;;6.87;5.43;;;12.80;99.90;;;;;;5004222;28;20978;-54
2022/04/14 12:16:08;;;;;;;6.60;5.57;;;12.70;99.90;;;;;;4993912;28;20963;-54
2022/04/14 12:18:35;;;;;;;8.67;5.10;;;12.70;99.90;;;;;;4999223;28;20499;-53
2022/04/14 12:21:02;;;;;;;5.50;5.00;;;12.70;99.90;;;;;;5013643;28;20462;-53
2022/04/14 12:23:28;;;;;;;5.20;4.70;;;12.60;99.90;;;;;;5013571;28;20475;-54
2022/04/14 12:25:58;;;;;;;5.10;4.70;;;12.60;99.90;;;;;;5013445;28;20874;-54
2022/04/14 12:28:25;;;;;;;7.73;4.90;;;12.60;99.90;;;;;;5012840;28;20827;-55
2022/04/14 12:30:51;;;;;;;6.87;5.33;;;12.50;99.90;;;;;;5014497;28;20526;-54
2022/04/14 12:33:25;;;;;;;5.43;4.93;;;12.50;99.90;;;;;;5009871;28;20487;-55
2022/04/14 12:35:52;;;;;;;7.03;6.37;;;12.50;99.90;;;;;;5009162;28;20534;-54
2022/04/14 12:38:21;;;;;;;6.10;5.60;;;12.60;99.90;;;;;;5014925;28;20998;-54
2022/04/14 12:40:54;;;;;;;6.70;6.10;;;12.60;99.90;;;;;;5014087;28;20498;-54
2022/04/14 12:43:23;;;;;;;6.30;5.90;;;12.60;99.90;;;;;;5012831;28;20456;-53
2022/04/14 12:45:50;;;;;;;7.97;6.43;;;12.60;99.90;;;;;;5013258;28;20504;-52
2022/04/14 12:48:26;;;;;;;6.73;5.67;;;12.60;99.90;;;;;;5012620;28;20550;-54